sensor_id;sensor_type;location;lat;lon;timestamp;temperature;humidity
17843;DHT22;69286;48.222;16.332;2023-06-10T00:01:38;18.80;99.90
17843;DHT22;69286;48.222;16.332;2023-06-10T00:04:05;18.80;99.90
17843;DHT22;69286;48.222;16.332;2023-06-10T00:06:32;18.80;99.90
17843;DHT22;69286;48.222;16.332;2023-06-10T00:09:03;18.80;99.90
17843;DHT22;69286;48.222;16.332;2023-06-10T00:11:31;18.70;99.90
17843;DHT22;69286;48.222;16.332;2023-06-10T00:13:58;18.70;99.90
17843;DHT22;69286;48.222;16.332;2023-06-10T00:16:25;18.70;99.90
17843;DHT22;69286;48.222;16.332;2023-06-10T00:18:52;18.70;99.90
17843;DHT22;69286;48.222;16.332;2023-06-10T00:21:21;18.70;99.90
17843;DHT22;69286;48.222;16.332;2023-06-10T00:23:50;18.70;99.90
17843;DHT22;69286;48.222;16.332;2023-06-10T00:26:18;18.70;99.90
17843;DHT22;69286;48.222;16.332;2023-06-10T00:28:45;18.80;99.90
17843;DHT22;69286;48.222;16.332;2023-06-10T00:31:12;18.80;99.90
17843;DHT22;69286;48.222;16.332;2023-06-10T00:33:39;18.80;99.90
17843;DHT22;69286;48.222;16.332;2023-06-10T00:36:06;18.70;99.90
17843;DHT22;69286;48.222;16.332;2023-06-10T00:38:33;18.70;99.90
17843;DHT22;69286;48.222;16.332;2023-06-10T00:41:00;18.70;99.90
17843;DHT22;69286;48.222;16.332;2023-06-10T00:43:28;18.70;99.90
17843;DHT22;69286;48.222;16.332;2023-06-10T00:45:55;18.70;99.90
17843;DHT22;69286;48.222;16.332;2023-06-10T00:48:22;18.70;99.90
17843;DHT22;69286;48.222;16.332;2023-06-10T00:50:50;18.70;99.90
17843;DHT22;69286;48.222;16.332;2023-06-10T00:53:17;18.70;99.90
17843;DHT22;69286;48.222;16.332;2023-06-10T00:55:44;18.70;99.90
17843;DHT22;69286;48.222;16.332;2023-06-10T00:58:13;18.60;99.90
17843;DHT22;69286;48.222;16.332;2023-06-10T01:00:41;18.60;99.90
17843;DHT22;69286;48.222;16.332;2023-06-10T01:03:08;18.50;99.90
17843;DHT22;69286;48.222;16.332;2023-06-10T01:05:35;18.40;99.90
17843;DHT22;69286;48.222;16.332;2023-06-10T01:08:09;18.40;99.90
17843;DHT22;69286;48.222;16.332;2023-06-10T01:10:40;18.40;99.90
17843;DHT22;69286;48.222;16.332;2023-06-10T01:13:10;18.30;99.90
17843;DHT22;69286;48.222;16.332;2023-06-10T01:15:39;18.20;99.90
17843;DHT22;69286;48.222;16.332;2023-06-10T01:18:08;18.30;99.90
17843;DHT22;69286;48.222;16.332;2023-06-10T01:20:37;18.30;99.90
17843;DHT22;69286;48.222;16.332;2023-06-10T01:23:08;18.30;99.90
17843;DHT22;69286;48.222;16.332;2023-06-10T01:25:37;18.30;99.90
17843;DHT22;69286;48.222;16.332;2023-06-10T01:28:08;18.40;99.90
17843;DHT22;69286;48.222;16.332;2023-06-10T01:30:48;18.40;99.90
17843;DHT22;69286;48.222;16.332;2023-06-10T01:33:21;18.50;99.90
17843;DHT22;69286;48.222;16.332;2023-06-10T01:35:50;18.50;99.90
17843;DHT22;69286;48.222;16.332;2023-06-10T01:38:20;18.50;99.90
17843;DHT22;69286;48.222;16.332;2023-06-10T01:40:48;18.50;99.90
17843;DHT22;69286;48.222;16.332;2023-06-10T01:43:16;18.50;99.90
17843;DHT22;69286;48.222;16.332;2023-06-10T01:45:43;18.50;99.90
17843;DHT22;69286;48.222;16.332;2023-06-10T01:48:09;18.40;99.90
17843;DHT22;69286;48.222;16.332;2023-06-10T01:50:36;18.50;99.90
17843;DHT22;69286;48.222;16.332;2023-06-10T01:53:03;18.50;99.90
17843;DHT22;69286;48.222;16.332;2023-06-10T01:55:32;18.50;99.90
17843;DHT22;69286;48.222;16.332;2023-06-10T01:57:59;18.50;99.90
17843;DHT22;69286;48.222;16.332;2023-06-10T02:00:26;18.50;99.90
17843;DHT22;69286;48.222;16.332;2023-06-10T02:02:53;18.50;99.90
17843;DHT22;69286;48.222;16.332;2023-06-10T02:05:20;18.50;99.90
17843;DHT22;69286;48.222;16.332;2023-06-10T02:07:47;18.50;99.90
17843;DHT22;69286;48.222;16.332;2023-06-10T02:10:14;18.60;99.90
17843;DHT22;69286;48.222;16.332;2023-06-10T02:12:42;18.50;99.90
17843;DHT22;69286;48.222;16.332;2023-06-10T02:15:09;18.50;99.90
17843;DHT22;69286;48.222;16.332;2023-06-10T02:17:36;18.50;99.90
17843;DHT22;69286;48.222;16.332;2023-06-10T02:20:04;18.50;99.90
17843;DHT22;69286;48.222;16.332;2023-06-10T02:22:33;18.50;99.90
17843;DHT22;69286;48.222;16.332;2023-06-10T02:25:00;18.60;99.90
17843;DHT22;69286;48.222;16.332;2023-06-10T02:27:27;18.50;99.90
17843;DHT22;69286;48.222;16.332;2023-06-10T02:29:55;18.50;99.90
17843;DHT22;69286;48.222;16.332;2023-06-10T02:32:22;18.50;99.90
17843;DHT22;69286;48.222;16.332;2023-06-10T02:34:51;17.30;99.90
17843;DHT22;69286;48.222;16.332;2023-06-10T02:37:18;18.50;99.90
17843;DHT22;69286;48.222;16.332;2023-06-10T02:39:45;18.50;99.90
17843;DHT22;69286;48.222;16.332;2023-06-10T02:42:12;18.50;99.90
17843;DHT22;69286;48.222;16.332;2023-06-10T02:44:38;18.40;99.90
17843;DHT22;69286;48.222;16.332;2023-06-10T02:47:07;18.40;99.90
17843;DHT22;69286;48.222;16.332;2023-06-10T02:49:34;18.40;99.90
17843;DHT22;69286;48.222;16.332;2023-06-10T02:52:01;18.40;99.90
17843;DHT22;69286;48.222;16.332;2023-06-10T02:54:28;18.40;99.90
17843;DHT22;69286;48.222;16.332;2023-06-10T02:56:55;18.30;99.90
17843;DHT22;69286;48.222;16.332;2023-06-10T02:59:22;18.40;99.90
17843;DHT22;69286;48.222;16.332;2023-06-10T03:01:49;18.40;99.90
17843;DHT22;69286;48.222;16.332;2023-06-10T03:04:17;18.40;99.90
17843;DHT22;69286;48.222;16.332;2023-06-10T03:06:46;18.40;99.90
17843;DHT22;69286;48.222;16.332;2023-06-10T03:09:13;18.40;99.90
17843;DHT22;69286;48.222;16.332;2023-06-10T03:11:40;18.40;99.90
17843;DHT22;69286;48.222;16.332;2023-06-10T03:14:07;18.40;99.90
17843;DHT22;69286;48.222;16.332;2023-06-10T03:16:34;18.50;99.90
17843;DHT22;69286;48.222;16.332;2023-06-10T03:19:00;18.50;99.90
17843;DHT22;69286;48.222;16.332;2023-06-10T03:21:29;18.50;99.90
17843;DHT22;69286;48.222;16.332;2023-06-10T03:23:56;18.50;99.90
17843;DHT22;69286;48.222;16.332;2023-06-10T03:26:23;18.50;99.90
17843;DHT22;69286;48.222;16.332;2023-06-10T03:28:50;18.50;99.90
17843;DHT22;69286;48.222;16.332;2023-06-10T03:31:16;18.50;99.90
17843;DHT22;69286;48.222;16.332;2023-06-10T03:33:43;18.60;99.90
17843;DHT22;69286;48.222;16.332;2023-06-10T03:36:10;18.50;99.90
17843;DHT22;69286;48.222;16.332;2023-06-10T03:38:38;18.50;99.90
17843;DHT22;69286;48.222;16.332;2023-06-10T03:41:05;18.60;99.90
17843;DHT22;69286;48.222;16.332;2023-06-10T03:43:32;18.60;99.90
17843;DHT22;69286;48.222;16.332;2023-06-10T03:45:59;18.60;99.90
17843;DHT22;69286;48.222;16.332;2023-06-10T03:48:26;18.70;99.90
17843;DHT22;69286;48.222;16.332;2023-06-10T03:50:53;18.70;99.90
17843;DHT22;69286;48.222;16.332;2023-06-10T03:53:20;18.70;99.90
17843;DHT22;69286;48.222;16.332;2023-06-10T03:55:49;18.80;99.90
17843;DHT22;69286;48.222;16.332;2023-06-10T03:58:15;18.80;99.90
17843;DHT22;69286;48.222;16.332;2023-06-10T04:00:43;18.80;99.90
17843;DHT22;69286;48.222;16.332;2023-06-10T04:03:11;18.80;99.90
17843;DHT22;69286;48.222;16.332;2023-06-10T04:05:40;18.80;99.90
17843;DHT22;69286;48.222;16.332;2023-06-10T04:08:08;18.90;99.90
17843;DHT22;69286;48.222;16.332;2023-06-10T04:10:35;18.90;99.90
17843;DHT22;69286;48.222;16.332;2023-06-10T04:13:03;19.00;99.90
17843;DHT22;69286;48.222;16.332;2023-06-10T04:15:30;19.00;99.90
17843;DHT22;69286;48.222;16.332;2023-06-10T04:17:59;19.10;99.90
17843;DHT22;69286;48.222;16.332;2023-06-10T04:20:26;19.10;99.90
17843;DHT22;69286;48.222;16.332;2023-06-10T04:22:53;19.10;99.90
17843;DHT22;69286;48.222;16.332;2023-06-10T04:25:20;19.10;99.90
17843;DHT22;69286;48.222;16.332;2023-06-10T04:27:47;19.10;99.90
17843;DHT22;69286;48.222;16.332;2023-06-10T04:30:16;19.10;99.90
17843;DHT22;69286;48.222;16.332;2023-06-10T04:32:43;19.10;99.90
17843;DHT22;69286;48.222;16.332;2023-06-10T04:35:12;19.20;99.90
17843;DHT22;69286;48.222;16.332;2023-06-10T04:37:39;19.20;99.90
17843;DHT22;69286;48.222;16.332;2023-06-10T04:40:07;19.20;99.90
17843;DHT22;69286;48.222;16.332;2023-06-10T04:42:35;19.30;99.90
17843;DHT22;69286;48.222;16.332;2023-06-10T04:45:02;19.30;99.90
17843;DHT22;69286;48.222;16.332;2023-06-10T04:47:31;19.30;99.90
17843;DHT22;69286;48.222;16.332;2023-06-10T04:49:59;19.40;99.90
17843;DHT22;69286;48.222;16.332;2023-06-10T04:52:25;19.40;99.90
17843;DHT22;69286;48.222;16.332;2023-06-10T04:54:53;19.50;99.90
17843;DHT22;69286;48.222;16.332;2023-06-10T04:57:20;19.50;99.90
17843;DHT22;69286;48.222;16.332;2023-06-10T04:59:47;19.50;99.90
17843;DHT22;69286;48.222;16.332;2023-06-10T05:02:14;19.50;99.90
17843;DHT22;69286;48.222;16.332;2023-06-10T05:04:42;19.60;99.90
17843;DHT22;69286;48.222;16.332;2023-06-10T05:07:09;19.60;99.90
17843;DHT22;69286;48.222;16.332;2023-06-10T05:09:36;19.70;99.90
17843;DHT22;69286;48.222;16.332;2023-06-10T05:12:04;19.70;99.90
17843;DHT22;69286;48.222;16.332;2023-06-10T05:14:32;19.80;99.90
17843;DHT22;69286;48.222;16.332;2023-06-10T05:16:59;19.80;99.90
17843;DHT22;69286;48.222;16.332;2023-06-10T05:19:26;19.90;99.90
17843;DHT22;69286;48.222;16.332;2023-06-10T05:21:54;19.90;99.90
17843;DHT22;69286;48.222;16.332;2023-06-10T05:24:21;20.00;99.90
17843;DHT22;69286;48.222;16.332;2023-06-10T05:26:48;20.10;99.90
17843;DHT22;69286;48.222;16.332;2023-06-10T05:29:15;20.10;99.90
17843;DHT22;69286;48.222;16.332;2023-06-10T05:31:42;20.10;99.90
17843;DHT22;69286;48.222;16.332;2023-06-10T05:34:09;20.20;99.90
17843;DHT22;69286;48.222;16.332;2023-06-10T05:36:37;20.20;99.90
17843;DHT22;69286;48.222;16.332;2023-06-10T05:39:05;20.30;99.90
17843;DHT22;69286;48.222;16.332;2023-06-10T05:41:32;20.30;99.90
17843;DHT22;69286;48.222;16.332;2023-06-10T05:43:59;20.30;99.90
17843;DHT22;69286;48.222;16.332;2023-06-10T05:46:26;20.30;99.90
17843;DHT22;69286;48.222;16.332;2023-06-10T05:48:53;20.30;99.90
17843;DHT22;69286;48.222;16.332;2023-06-10T05:51:20;20.30;99.90
17843;DHT22;69286;48.222;16.332;2023-06-10T05:53:47;20.30;99.90
17843;DHT22;69286;48.222;16.332;2023-06-10T05:56:15;20.30;99.90
17843;DHT22;69286;48.222;16.332;2023-06-10T05:58:42;20.20;99.90
17843;DHT22;69286;48.222;16.332;2023-06-10T06:01:09;20.20;99.90
17843;DHT22;69286;48.222;16.332;2023-06-10T06:03:36;20.20;99.90
17843;DHT22;69286;48.222;16.332;2023-06-10T06:06:03;20.10;99.90
17843;DHT22;69286;48.222;16.332;2023-06-10T06:08:30;20.10;99.90
17843;DHT22;69286;48.222;16.332;2023-06-10T06:10:57;20.00;99.90
17843;DHT22;69286;48.222;16.332;2023-06-10T06:13:25;20.00;99.90
17843;DHT22;69286;48.222;16.332;2023-06-10T06:15:52;19.90;99.90
17843;DHT22;69286;48.222;16.332;2023-06-10T06:18:19;19.90;99.90
17843;DHT22;69286;48.222;16.332;2023-06-10T06:20:46;19.80;99.90
17843;DHT22;69286;48.222;16.332;2023-06-10T06:23:13;19.80;99.90
17843;DHT22;69286;48.222;16.332;2023-06-10T06:25:40;19.80;99.90
17843;DHT22;69286;48.222;16.332;2023-06-10T06:28:07;19.80;99.90
17843;DHT22;69286;48.222;16.332;2023-06-10T06:30:36;19.80;99.90
17843;DHT22;69286;48.222;16.332;2023-06-10T06:33:03;19.80;99.90
17843;DHT22;69286;48.222;16.332;2023-06-10T06:35:31;19.80;99.90
17843;DHT22;69286;48.222;16.332;2023-06-10T06:37:59;19.80;99.90
17843;DHT22;69286;48.222;16.332;2023-06-10T06:40:26;19.80;99.90
17843;DHT22;69286;48.222;16.332;2023-06-10T06:42:53;19.80;99.90
17843;DHT22;69286;48.222;16.332;2023-06-10T06:45:20;19.80;99.90
17843;DHT22;69286;48.222;16.332;2023-06-10T06:47:48;19.80;99.90
17843;DHT22;69286;48.222;16.332;2023-06-10T06:50:15;19.80;99.90
17843;DHT22;69286;48.222;16.332;2023-06-10T06:52:43;19.80;99.90
17843;DHT22;69286;48.222;16.332;2023-06-10T06:55:10;19.90;99.90
17843;DHT22;69286;48.222;16.332;2023-06-10T06:57:36;20.00;99.90
17843;DHT22;69286;48.222;16.332;2023-06-10T07:00:04;20.00;99.90
17843;DHT22;69286;48.222;16.332;2023-06-10T07:02:32;20.00;99.90
17843;DHT22;69286;48.222;16.332;2023-06-10T07:05:00;20.00;99.90
17843;DHT22;69286;48.222;16.332;2023-06-10T07:07:27;20.10;99.90
17843;DHT22;69286;48.222;16.332;2023-06-10T07:09:54;20.10;99.90
17843;DHT22;69286;48.222;16.332;2023-06-10T07:12:21;20.20;99.90
17843;DHT22;69286;48.222;16.332;2023-06-10T07:14:49;20.20;99.90
17843;DHT22;69286;48.222;16.332;2023-06-10T07:17:16;20.20;99.90
17843;DHT22;69286;48.222;16.332;2023-06-10T07:19:44;20.20;99.90
17843;DHT22;69286;48.222;16.332;2023-06-10T07:22:12;20.20;99.90
17843;DHT22;69286;48.222;16.332;2023-06-10T07:24:39;20.30;99.90
17843;DHT22;69286;48.222;16.332;2023-06-10T07:27:06;20.30;99.90
17843;DHT22;69286;48.222;16.332;2023-06-10T07:29:33;20.30;99.90
17843;DHT22;69286;48.222;16.332;2023-06-10T07:32:02;20.30;99.90
17843;DHT22;69286;48.222;16.332;2023-06-10T07:34:29;20.40;99.90
17843;DHT22;69286;48.222;16.332;2023-06-10T07:36:56;20.40;99.90
17843;DHT22;69286;48.222;16.332;2023-06-10T07:39:24;20.50;99.90
17843;DHT22;69286;48.222;16.332;2023-06-10T07:41:51;20.50;99.90
17843;DHT22;69286;48.222;16.332;2023-06-10T07:44:19;20.60;99.90
17843;DHT22;69286;48.222;16.332;2023-06-10T07:46:47;20.60;99.90
17843;DHT22;69286;48.222;16.332;2023-06-10T07:49:13;20.60;99.90
17843;DHT22;69286;48.222;16.332;2023-06-10T07:51:40;20.60;99.90
17843;DHT22;69286;48.222;16.332;2023-06-10T07:54:07;20.60;99.90
17843;DHT22;69286;48.222;16.332;2023-06-10T07:56:36;20.60;99.90
17843;DHT22;69286;48.222;16.332;2023-06-10T07:59:02;20.70;99.90
17843;DHT22;69286;48.222;16.332;2023-06-10T08:01:29;20.70;99.90
17843;DHT22;69286;48.222;16.332;2023-06-10T08:03:57;20.70;99.90
17843;DHT22;69286;48.222;16.332;2023-06-10T08:06:24;20.70;99.90
17843;DHT22;69286;48.222;16.332;2023-06-10T08:08:50;20.70;99.90
17843;DHT22;69286;48.222;16.332;2023-06-10T08:11:17;20.70;99.90
17843;DHT22;69286;48.222;16.332;2023-06-10T08:13:46;20.70;99.90
17843;DHT22;69286;48.222;16.332;2023-06-10T08:16:13;20.70;99.90
17843;DHT22;69286;48.222;16.332;2023-06-10T08:18:40;20.70;99.90
17843;DHT22;69286;48.222;16.332;2023-06-10T08:21:07;20.80;99.90
17843;DHT22;69286;48.222;16.332;2023-06-10T08:23:34;20.70;99.90
17843;DHT22;69286;48.222;16.332;2023-06-10T08:26:01;20.70;99.90
17843;DHT22;69286;48.222;16.332;2023-06-10T08:28:28;20.70;99.90
17843;DHT22;69286;48.222;16.332;2023-06-10T08:30:56;20.60;99.90
17843;DHT22;69286;48.222;16.332;2023-06-10T08:33:23;20.60;99.90
17843;DHT22;69286;48.222;16.332;2023-06-10T08:35:50;20.60;99.90
17843;DHT22;69286;48.222;16.332;2023-06-10T08:38:17;20.60;99.90
17843;DHT22;69286;48.222;16.332;2023-06-10T08:40:44;20.60;99.90
17843;DHT22;69286;48.222;16.332;2023-06-10T08:43:17;20.70;99.90
17843;DHT22;69286;48.222;16.332;2023-06-10T08:45:49;20.80;99.90
17843;DHT22;69286;48.222;16.332;2023-06-10T08:48:19;20.80;99.90
17843;DHT22;69286;48.222;16.332;2023-06-10T08:50:47;20.90;99.90
17843;DHT22;69286;48.222;16.332;2023-06-10T08:53:18;20.90;99.90
17843;DHT22;69286;48.222;16.332;2023-06-10T08:55:49;20.90;99.90
17843;DHT22;69286;48.222;16.332;2023-06-10T08:58:17;20.90;99.90
17843;DHT22;69286;48.222;16.332;2023-06-10T09:00:44;21.10;99.90
17843;DHT22;69286;48.222;16.332;2023-06-10T09:03:12;21.20;99.90
17843;DHT22;69286;48.222;16.332;2023-06-10T09:05:41;21.30;99.90
17843;DHT22;69286;48.222;16.332;2023-06-10T09:08:08;21.30;99.90
17843;DHT22;69286;48.222;16.332;2023-06-10T09:10:35;21.40;99.90
17843;DHT22;69286;48.222;16.332;2023-06-10T09:13:02;21.40;99.90
17843;DHT22;69286;48.222;16.332;2023-06-10T09:15:29;21.50;99.90
17843;DHT22;69286;48.222;16.332;2023-06-10T09:17:56;21.50;99.30
17843;DHT22;69286;48.222;16.332;2023-06-10T09:20:23;21.50;99.10
17843;DHT22;69286;48.222;16.332;2023-06-10T09:22:52;21.60;98.90
17843;DHT22;69286;48.222;16.332;2023-06-10T09:25:19;21.60;98.80
17843;DHT22;69286;48.222;16.332;2023-06-10T09:28:00;21.60;98.70
17843;DHT22;69286;48.222;16.332;2023-06-10T09:30:28;21.70;98.80
17843;DHT22;69286;48.222;16.332;2023-06-10T09:32:56;21.80;98.00
17843;DHT22;69286;48.222;16.332;2023-06-10T09:35:23;21.80;98.30
17843;DHT22;69286;48.222;16.332;2023-06-10T09:37:53;21.90;98.20
17843;DHT22;69286;48.222;16.332;2023-06-10T09:40:20;22.10;98.10
17843;DHT22;69286;48.222;16.332;2023-06-10T09:42:52;22.10;97.80
17843;DHT22;69286;48.222;16.332;2023-06-10T09:45:21;22.30;97.20
17843;DHT22;69286;48.222;16.332;2023-06-10T09:47:51;22.30;97.30
17843;DHT22;69286;48.222;16.332;2023-06-10T09:50:19;22.40;96.70
17843;DHT22;69286;48.222;16.332;2023-06-10T09:52:47;22.50;96.30
17843;DHT22;69286;48.222;16.332;2023-06-10T09:55:16;22.60;95.90
17843;DHT22;69286;48.222;16.332;2023-06-10T09:57:43;22.70;95.70
17843;DHT22;69286;48.222;16.332;2023-06-10T10:00:14;22.80;95.50
17843;DHT22;69286;48.222;16.332;2023-06-10T10:02:46;22.90;95.40
17843;DHT22;69286;48.222;16.332;2023-06-10T10:05:14;23.00;95.10
17843;DHT22;69286;48.222;16.332;2023-06-10T10:07:42;23.10;94.70
17843;DHT22;69286;48.222;16.332;2023-06-10T10:10:09;23.20;94.70
17843;DHT22;69286;48.222;16.332;2023-06-10T10:12:39;23.20;94.50
17843;DHT22;69286;48.222;16.332;2023-06-10T10:15:07;23.30;94.20
17843;DHT22;69286;48.222;16.332;2023-06-10T10:17:36;23.40;93.30
17843;DHT22;69286;48.222;16.332;2023-06-10T10:20:05;23.40;93.30
17843;DHT22;69286;48.222;16.332;2023-06-10T10:22:37;23.50;93.20
17843;DHT22;69286;48.222;16.332;2023-06-10T10:25:10;23.50;92.70
17843;DHT22;69286;48.222;16.332;2023-06-10T10:27:43;23.60;92.10
17843;DHT22;69286;48.222;16.332;2023-06-10T10:30:12;23.60;91.90
17843;DHT22;69286;48.222;16.332;2023-06-10T10:32:45;23.70;91.90
17843;DHT22;69286;48.222;16.332;2023-06-10T10:35:18;23.80;91.90
17843;DHT22;69286;48.222;16.332;2023-06-10T10:37:47;24.00;91.80
17843;DHT22;69286;48.222;16.332;2023-06-10T10:40:15;24.10;91.70
17843;DHT22;69286;48.222;16.332;2023-06-10T10:42:44;24.30;91.30
17843;DHT22;69286;48.222;16.332;2023-06-10T10:45:11;24.40;90.60
17843;DHT22;69286;48.222;16.332;2023-06-10T10:47:39;24.50;90.60
17843;DHT22;69286;48.222;16.332;2023-06-10T10:50:14;24.60;90.30
17843;DHT22;69286;48.222;16.332;2023-06-10T10:52:52;24.70;90.20
17843;DHT22;69286;48.222;16.332;2023-06-10T10:55:19;24.70;90.00
17843;DHT22;69286;48.222;16.332;2023-06-10T10:57:55;24.70;88.70
17843;DHT22;69286;48.222;16.332;2023-06-10T11:00:29;24.70;87.80
17843;DHT22;69286;48.222;16.332;2023-06-10T11:03:04;24.70;87.50
17843;DHT22;69286;48.222;16.332;2023-06-10T11:05:36;24.80;88.00
17843;DHT22;69286;48.222;16.332;2023-06-10T11:08:04;25.00;88.10
17843;DHT22;69286;48.222;16.332;2023-06-10T11:10:31;25.10;86.50
17843;DHT22;69286;48.222;16.332;2023-06-10T11:13:00;25.20;85.00
17843;DHT22;69286;48.222;16.332;2023-06-10T11:15:29;25.20;84.90
17843;DHT22;69286;48.222;16.332;2023-06-10T11:18:10;25.30;84.20
17843;DHT22;69286;48.222;16.332;2023-06-10T11:20:55;25.30;82.80
17843;DHT22;69286;48.222;16.332;2023-06-10T11:23:41;25.30;82.70
17843;DHT22;69286;48.222;16.332;2023-06-10T11:26:13;25.30;83.40
17843;DHT22;69286;48.222;16.332;2023-06-10T11:29:00;25.20;82.70
17843;DHT22;69286;48.222;16.332;2023-06-10T11:31:29;25.20;83.30
17843;DHT22;69286;48.222;16.332;2023-06-10T11:33:57;25.10;83.50
17843;DHT22;69286;48.222;16.332;2023-06-10T11:36:25;25.10;84.80
17843;DHT22;69286;48.222;16.332;2023-06-10T11:38:55;25.10;84.90
17843;DHT22;69286;48.222;16.332;2023-06-10T11:41:23;25.10;84.90
17843;DHT22;69286;48.222;16.332;2023-06-10T11:43:52;25.00;83.50
17843;DHT22;69286;48.222;16.332;2023-06-10T11:46:19;25.00;84.00
17843;DHT22;69286;48.222;16.332;2023-06-10T11:48:49;25.00;84.60
17843;DHT22;69286;48.222;16.332;2023-06-10T11:51:16;25.10;85.20
17843;DHT22;69286;48.222;16.332;2023-06-10T11:53:44;25.10;85.10
17843;DHT22;69286;48.222;16.332;2023-06-10T11:56:11;25.20;84.60
17843;DHT22;69286;48.222;16.332;2023-06-10T11:58:41;25.20;83.80
17843;DHT22;69286;48.222;16.332;2023-06-10T12:01:11;25.10;84.10
17843;DHT22;69286;48.222;16.332;2023-06-10T12:03:46;25.20;84.50
17843;DHT22;69286;48.222;16.332;2023-06-10T12:06:13;25.10;84.10
17843;DHT22;69286;48.222;16.332;2023-06-10T12:08:41;25.10;84.70
17843;DHT22;69286;48.222;16.332;2023-06-10T12:11:09;25.10;84.00
17843;DHT22;69286;48.222;16.332;2023-06-10T12:13:37;25.20;81.80
17843;DHT22;69286;48.222;16.332;2023-06-10T12:16:14;25.20;82.50
17843;DHT22;69286;48.222;16.332;2023-06-10T12:18:42;25.20;82.50
17843;DHT22;69286;48.222;16.332;2023-06-10T12:21:17;25.30;81.90
17843;DHT22;69286;48.222;16.332;2023-06-10T12:24:02;25.30;82.20
17843;DHT22;69286;48.222;16.332;2023-06-10T12:26:36;25.40;80.80
17843;DHT22;69286;48.222;16.332;2023-06-10T12:29:16;25.40;80.90
17843;DHT22;69286;48.222;16.332;2023-06-10T12:31:56;25.40;80.70
17843;DHT22;69286;48.222;16.332;2023-06-10T12:34:32;25.50;80.90
17843;DHT22;69286;48.222;16.332;2023-06-10T12:36:59;25.50;81.10
17843;DHT22;69286;48.222;16.332;2023-06-10T12:39:26;25.50;79.00
17843;DHT22;69286;48.222;16.332;2023-06-10T12:41:54;25.40;79.30
17843;DHT22;69286;48.222;16.332;2023-06-10T12:44:34;25.30;78.30
17843;DHT22;69286;48.222;16.332;2023-06-10T12:47:09;25.20;78.70
17843;DHT22;69286;48.222;16.332;2023-06-10T12:49:37;24.90;85.30
17843;DHT22;69286;48.222;16.332;2023-06-10T12:52:05;24.80;92.70
17843;DHT22;69286;48.222;16.332;2023-06-10T12:54:33;24.50;96.00
17843;DHT22;69286;48.222;16.332;2023-06-10T12:57:00;24.30;98.20
17843;DHT22;69286;48.222;16.332;2023-06-10T12:59:27;24.10;97.90
17843;DHT22;69286;48.222;16.332;2023-06-10T13:01:54;24.00;99.60
17843;DHT22;69286;48.222;16.332;2023-06-10T13:04:23;24.00;99.90
17843;DHT22;69286;48.222;16.332;2023-06-10T13:06:50;24.00;99.90
17843;DHT22;69286;48.222;16.332;2023-06-10T13:09:17;24.00;99.90
17843;DHT22;69286;48.222;16.332;2023-06-10T13:11:44;24.00;99.90
17843;DHT22;69286;48.222;16.332;2023-06-10T13:14:11;23.90;99.70
17843;DHT22;69286;48.222;16.332;2023-06-10T13:16:38;23.90;99.90
17843;DHT22;69286;48.222;16.332;2023-06-10T13:19:05;23.90;99.90
17843;DHT22;69286;48.222;16.332;2023-06-10T13:21:34;24.00;99.90
17843;DHT22;69286;48.222;16.332;2023-06-10T13:24:01;24.00;99.60
17843;DHT22;69286;48.222;16.332;2023-06-10T13:26:29;24.10;99.50
17843;DHT22;69286;48.222;16.332;2023-06-10T13:28:56;24.10;99.60
17843;DHT22;69286;48.222;16.332;2023-06-10T13:31:23;24.10;99.50
17843;DHT22;69286;48.222;16.332;2023-06-10T13:33:50;24.20;99.30
17843;DHT22;69286;48.222;16.332;2023-06-10T13:36:17;24.20;99.20
17843;DHT22;69286;48.222;16.332;2023-06-10T13:38:45;24.20;98.30
17843;DHT22;69286;48.222;16.332;2023-06-10T13:41:13;24.10;98.20
17843;DHT22;69286;48.222;16.332;2023-06-10T13:43:40;24.10;98.20
17843;DHT22;69286;48.222;16.332;2023-06-10T13:46:07;24.10;97.40
17843;DHT22;69286;48.222;16.332;2023-06-10T13:48:34;24.10;96.50
17843;DHT22;69286;48.222;16.332;2023-06-10T13:51:01;24.20;96.00
17843;DHT22;69286;48.222;16.332;2023-06-10T13:53:28;24.20;95.40
17843;DHT22;69286;48.222;16.332;2023-06-10T13:55:56;24.20;93.90
17843;DHT22;69286;48.222;16.332;2023-06-10T13:58:23;24.20;94.50
17843;DHT22;69286;48.222;16.332;2023-06-10T14:00:50;24.20;94.20
17843;DHT22;69286;48.222;16.332;2023-06-10T14:03:17;24.10;94.50
17843;DHT22;69286;48.222;16.332;2023-06-10T14:05:44;24.20;94.70
17843;DHT22;69286;48.222;16.332;2023-06-10T14:08:11;24.20;94.80
17843;DHT22;69286;48.222;16.332;2023-06-10T14:10:38;24.20;94.70
17843;DHT22;69286;48.222;16.332;2023-06-10T14:13:07;24.30;94.50
17843;DHT22;69286;48.222;16.332;2023-06-10T14:15:34;24.30;93.40
17843;DHT22;69286;48.222;16.332;2023-06-10T14:18:01;24.40;93.30
17843;DHT22;69286;48.222;16.332;2023-06-10T14:20:28;24.40;92.80
17843;DHT22;69286;48.222;16.332;2023-06-10T14:22:57;24.40;92.80
17843;DHT22;69286;48.222;16.332;2023-06-10T14:25:24;24.40;92.50
17843;DHT22;69286;48.222;16.332;2023-06-10T14:27:51;24.40;92.80
17843;DHT22;69286;48.222;16.332;2023-06-10T14:30:19;24.50;91.90
17843;DHT22;69286;48.222;16.332;2023-06-10T14:32:46;24.50;91.80
17843;DHT22;69286;48.222;16.332;2023-06-10T14:35:13;24.50;92.20
17843;DHT22;69286;48.222;16.332;2023-06-10T14:37:40;24.50;91.90
17843;DHT22;69286;48.222;16.332;2023-06-10T14:40:08;24.50;92.00
17843;DHT22;69286;48.222;16.332;2023-06-10T14:42:35;24.50;92.10
17843;DHT22;69286;48.222;16.332;2023-06-10T14:45:02;24.60;92.20
17843;DHT22;69286;48.222;16.332;2023-06-10T14:47:31;24.70;92.40
17843;DHT22;69286;48.222;16.332;2023-06-10T14:49:58;24.70;92.40
17843;DHT22;69286;48.222;16.332;2023-06-10T14:52:25;24.80;92.30
17843;DHT22;69286;48.222;16.332;2023-06-10T14:54:51;24.80;92.20
17843;DHT22;69286;48.222;16.332;2023-06-10T14:57:19;24.90;91.70
17843;DHT22;69286;48.222;16.332;2023-06-10T14:59:46;24.90;91.40
17843;DHT22;69286;48.222;16.332;2023-06-10T15:02:12;24.90;90.90
17843;DHT22;69286;48.222;16.332;2023-06-10T15:04:41;24.90;91.30
17843;DHT22;69286;48.222;16.332;2023-06-10T15:07:08;25.00;90.90
17843;DHT22;69286;48.222;16.332;2023-06-10T15:09:35;25.00;90.40
17843;DHT22;69286;48.222;16.332;2023-06-10T15:12:02;25.00;90.60
17843;DHT22;69286;48.222;16.332;2023-06-10T15:14:31;25.00;90.80
17843;DHT22;69286;48.222;16.332;2023-06-10T15:16:58;25.10;90.90
17843;DHT22;69286;48.222;16.332;2023-06-10T15:19:26;25.10;91.00
17843;DHT22;69286;48.222;16.332;2023-06-10T15:21:54;25.10;91.20